Time;durP1;ratioP1;P1;durP2;ratioP2;P2;SDS_P1;SDS_P2;PMS_P1;PMS_P2;Temp;Humidity;BMP_temperature;BMP_pressure;BME280_temperature;BME280_humidity;BME280_pressure;Samples;Min_cycle;Max_cycle;Signal;HPM_P1;HPM_P2
2021/05/27 00:00:21;;;;;;;11.53;7.78;;;;;;;15.27;100.00;101092.45;1773817;80;21114;-64
2021/05/27 00:02:48;;;;;;;11.15;8.50;;;;;;;15.28;100.00;101088.80;1779113;79;21251;-65
2021/05/27 00:05:15;;;;;;;11.45;7.80;;;;;;;15.27;100.00;101085.23;1791303;79;21106;-65
2021/05/27 00:07:42;;;;;;;11.75;8.50;;;;;;;15.27;100.00;101083.00;1774489;80;21102;-64
2021/05/27 00:10:10;;;;;;;9.38;8.03;;;;;;;15.29;100.00;101084.69;1774726;79;21599;-66
2021/05/27 00:12:37;;;;;;;15.18;7.90;;;;;;;15.32;100.00;101087.23;1775151;79;21151;-62
2021/05/27 00:15:06;;;;;;;11.03;7.85;;;;;;;15.34;100.00;101076.33;1773875;80;21145;-63
2021/05/27 00:17:33;;;;;;;9.95;7.95;;;;;;;15.36;100.00;101066.31;1775010;80;21097;-63
2021/05/27 00:20:03;;;;;;;16.73;8.78;;;;;;;15.38;100.00;101069.84;1774333;80;21054;-63
2021/05/27 00:22:30;;;;;;;9.95;7.97;;;;;;;15.37;100.00;101072.15;1774916;80;21811;-65
2021/05/27 00:24:56;;;;;;;9.80;7.15;;;;;;;15.35;100.00;101079.92;1774161;80;21527;-64
2021/05/27 00:27:22;;;;;;;10.28;7.12;;;;;;;15.32;100.00;101084.52;1774002;80;21500;-63
2021/05/27 00:29:49;;;;;;;8.70;7.10;;;;;;;15.32;100.00;101083.63;1752350;80;21559;-65
2021/05/27 00:32:16;;;;;;;7.90;6.03;;;;;;;15.31;100.00;101080.53;1789083;79;21461;-65
2021/05/27 00:34:42;;;;;;;11.22;5.83;;;;;;;15.31;100.00;101073.78;1800818;79;21093;-65
2021/05/27 00:37:10;;;;;;;6.47;5.50;;;;;;;15.29;100.00;101072.98;1800731;78;21670;-65
2021/05/27 00:39:37;;;;;;;6.75;5.40;;;;;;;15.27;100.00;101072.19;1798487;79;21066;-66
2021/05/27 00:42:05;;;;;;;8.13;5.58;;;;;;;15.26;100.00;101074.50;1773593;79;21153;-65
2021/05/27 00:44:32;;;;;;;6.00;5.20;;;;;;;15.26;100.00;101063.23;1774941;80;21014;-66
2021/05/27 00:47:02;;;;;;;5.80;5.20;;;;;;;15.25;100.00;101064.64;1773909;79;21680;-65
2021/05/27 00:49:30;;;;;;;5.62;4.72;;;;;;;15.22;100.00;101056.70;1774132;80;21914;-64
2021/05/27 00:51:57;;;;;;;7.25;5.37;;;;;;;15.16;100.00;101050.66;1777641;79;21134;-64
2021/05/27 00:54:24;;;;;;;6.95;5.12;;;;;;;15.15;100.00;101047.56;1743207;81;21089;-65
2021/05/27 00:56:52;;;;;;;10.18;5.67;;;;;;;15.13;100.00;101044.03;1744066;82;21519;-65
2021/05/27 00:59:20;;;;;;;6.28;5.47;;;;;;;15.13;100.00;101049.43;1743459;82;21613;-65
2021/05/27 01:01:51;;;;;;;8.13;5.85;;;;;;;15.14;100.00;101046.27;1743255;82;21093;-65
2021/05/27 01:04:19;;;;;;;9.23;6.05;;;;;;;15.12;100.00;101053.09;1743470;80;21103;-66
2021/05/27 01:06:46;;;;;;;8.15;6.05;;;;;;;15.10;100.00;101044.19;1775571;79;20971;-65
2021/05/27 01:09:12;;;;;;;7.90;5.92;;;;;;;15.11;100.00;101048.63;1775031;80;21034;-67
2021/05/27 01:11:40;;;;;;;5.33;4.60;;;;;;;15.12;100.00;101050.38;1775001;80;21378;-65
2021/05/27 01:15:25;;;;;;;7.35;4.83;;;;;;;15.11;100.00;101050.48;1774241;80;21149;-64
2021/05/27 01:16:43;;;;;;;10.40;5.50;;;;;;;15.03;100.00;101046.80;1770865;80;21129;-64
2021/05/27 01:19:10;;;;;;;7.05;5.22;;;;;;;14.99;100.00;101051.95;1781932;78;21074;-62
2021/05/27 01:21:44;;;;;;;50.92;8.45;;;;;;;14.97;100.00;101048.46;1801062;78;20994;-63
2021/05/27 01:24:13;;;;;;;43.55;7.47;;;;;;;14.94;100.00;101047.27;1800912;78;21586;-63
2021/05/27 01:26:41;;;;;;;36.83;8.55;;;;;;;14.90;100.00;101046.03;1800916;79;21070;-62
2021/05/27 01:29:09;;;;;;;43.52;8.53;;;;;;;14.87;100.00;101045.33;1801898;78;21011;-62
2021/05/27 01:31:36;;;;;;;30.52;7.42;;;;;;;14.85;100.00;101047.23;1802611;78;20979;-63
2021/05/27 01:34:07;;;;;;;45.38;7.62;;;;;;;14.82;100.00;101045.55;1800769;79;21246;-65
2021/05/27 01:36:33;;;;;;;35.05;8.63;;;;;;;14.79;100.00;101044.34;1801580;79;22885;-66
2021/05/27 01:39:00;;;;;;;31.87;8.23;;;;;;;14.78;100.00;101043.95;1800760;78;21130;-63
2021/05/27 01:41:27;;;;;;;27.50;8.53;;;;;;;14.78;100.00;101046.64;1801024;79;21121;-63
2021/05/27 01:43:56;;;;;;;53.65;8.75;;;;;;;14.77;100.00;101052.99;1793770;78;21011;-65
2021/05/27 01:46:24;;;;;;;69.87;8.40;;;;;;;14.73;100.00;101046.86;1769397;79;21213;-63
2021/05/27 01:48:50;;;;;;;46.05;7.50;;;;;;;14.71;100.00;101049.25;1781570;79;21463;-61
2021/05/27 01:51:17;;;;;;;63.85;6.40;;;;;;;14.69;100.00;101044.33;1782340;79;21101;-62
2021/05/27 01:53:44;;;;;;;50.70;6.22;;;;;;;14.61;100.00;101042.03;1782598;80;21077;-62
2021/05/27 01:56:10;;;;;;;45.60;6.12;;;;;;;14.56;100.00;101042.23;1789701;79;21094;-66
2021/05/27 01:58:38;;;;;;;33.40;4.97;;;;;;;14.55;100.00;101049.04;1806585;79;21137;-65
2021/05/27 02:01:06;;;;;;;74.03;4.85;;;;;;;14.51;100.00;101048.33;1806648;78;21022;-65
2021/05/27 02:03:33;;;;;;;57.58;3.80;;;;;;;14.41;100.00;101044.30;1806839;79;21733;-67
2021/05/27 02:06:02;;;;;;;66.75;6.22;;;;;;;14.29;100.00;101042.58;1789830;77;22156;-66
2021/05/27 02:08:28;;;;;;;55.95;5.53;;;;;;;14.24;100.00;101041.89;1782087;79;21468;-66
2021/05/27 02:10:56;;;;;;;21.77;4.50;;;;;;;14.23;100.00;101045.54;1781431;80;21554;-66
2021/05/27 02:13:23;;;;;;;30.80;5.75;;;;;;;14.23;100.00;101050.08;1782610;79;21689;-65
2021/05/27 02:15:52;;;;;;;31.45;5.47;;;;;;;14.17;100.00;101046.72;1783771;79;21685;-65
2021/05/27 02:18:20;;;;;;;56.33;7.28;;;;;;;14.13;100.00;101047.77;1806340;77;20998;-64
2021/05/27 02:20:47;;;;;;;13.38;5.85;;;;;;;14.08;100.00;101048.95;1808866;79;21440;-61
2021/05/27 02:23:15;;;;;;;23.62;6.80;;;;;;;14.05;100.00;101051.30;1807251;77;21336;-64
2021/05/27 02:25:45;;;;;;;15.23;6.62;;;;;;;14.00;100.00;101051.50;1791485;79;21188;-61
2021/05/27 02:28:15;;;;;;;20.72;6.47;;;;;;;13.97;100.00;101047.59;1779953;79;21141;-64
2021/05/27 02:30:43;;;;;;;15.88;6.60;;;;;;;13.94;100.00;101050.43;1782521;78;21368;-65
2021/05/27 02:33:11;;;;;;;34.45;6.15;;;;;;;13.93;100.00;101053.22;1782439;80;21564;-64
2021/05/27 02:35:39;;;;;;;20.50;5.60;;;;;;;13.94;100.00;101054.48;1782719;80;21569;-66
2021/05/27 02:38:08;;;;;;;30.10;5.62;;;;;;;13.99;100.00;101051.09;1782483;80;21093;-64
2021/05/27 02:40:36;;;;;;;24.23;5.33;;;;;;;14.03;100.00;101056.75;1782671;80;21164;-65
2021/05/27 02:43:03;;;;;;;11.95;6.08;;;;;;;14.10;100.00;101058.70;1782728;80;21121;-66
2021/05/27 02:45:31;;;;;;;10.05;4.87;;;;;;;14.20;100.00;101063.70;1795139;79;21511;-65
2021/05/27 02:47:57;;;;;;;11.88;5.17;;;;;;;14.29;100.00;101060.11;1802942;79;21592;-61
2021/05/27 02:50:25;;;;;;;14.85;5.50;;;;;;;14.39;100.00;101063.27;1801889;79;22029;-64
2021/05/27 02:52:52;;;;;;;20.82;6.47;;;;;;;14.49;100.00;101058.32;1798745;79;21094;-61
2021/05/27 02:55:19;;;;;;;22.62;6.10;;;;;;;14.56;100.00;101063.82;1750027;80;21109;-62
2021/05/27 02:57:48;;;;;;;15.43;6.25;;;;;;;14.64;100.00;101057.17;1779918;80;21072;-62
2021/05/27 03:00:18;;;;;;;12.85;6.95;;;;;;;14.70;100.00;101054.18;1742559;80;21022;-61
2021/05/27 03:02:53;;;;;;;13.15;6.25;;;;;;;14.78;100.00;101057.44;1741283;82;21719;-64
2021/05/27 03:05:20;;;;;;;9.38;5.72;;;;;;;14.85;100.00;101056.19;1740482;81;21393;-62
2021/05/27 03:07:48;;;;;;;8.63;5.12;;;;;;;14.95;100.00;101053.92;1733257;82;20929;-61
2021/05/27 03:10:16;;;;;;;9.10;4.70;;;;;;;15.08;100.00;101058.73;1731608;82;21126;-63
2021/05/27 03:12:45;;;;;;;10.05;4.55;;;;;;;15.16;100.00;101044.36;1731494;82;21095;-65
2021/05/27 03:15:12;;;;;;;7.95;4.62;;;;;;;15.25;100.00;101048.44;1703292;82;21152;-66
2021/05/27 03:17:39;;;;;;;7.50;4.08;;;;;;;15.33;100.00;101055.20;1744175;82;21037;-66
2021/05/27 03:20:08;;;;;;;8.70;4.40;;;;;;;15.43;100.00;101052.92;1743565;82;21075;-65
2021/05/27 03:22:34;;;;;;;9.03;5.30;;;;;;;15.52;100.00;101054.74;1754596;79;21074;-65
2021/05/27 03:25:02;;;;;;;6.72;4.62;;;;;;;15.60;100.00;101058.80;1801056;79;21152;-66
2021/05/27 03:27:29;;;;;;;12.68;4.87;;;;;;;15.65;100.00;101066.69;1800864;79;21388;-66
2021/05/27 03:29:56;;;;;;;8.23;5.08;;;;;;;15.69;100.00;101061.97;1807384;77;21405;-65
2021/05/27 03:32:24;;;;;;;15.53;5.50;;;;;;;15.68;100.00;101066.52;1800991;79;21081;-63
2021/05/27 03:34:50;;;;;;;20.57;5.50;;;;;;;15.72;100.00;101069.46;1801594;79;21158;-62
2021/05/27 03:37:17;;;;;;;13.15;4.80;;;;;;;15.80;100.00;101062.31;1801002;79;21467;-62
2021/05/27 03:42:32;;;;;;;8.08;5.70;;;;;;;15.97;100.00;101062.80;1793800;79;21059;-64
2021/05/27 03:44:59;;;;;;;12.07;6.12;;;;;;;16.11;100.00;101067.97;1775785;80;21038;-63
2021/05/27 03:47:27;;;;;;;11.85;6.42;;;;;;;16.20;100.00;101067.45;1752249;80;21022;-63
2021/05/27 03:49:56;;;;;;;14.03;6.37;;;;;;;16.29;100.00;101075.09;1774045;80;21086;-66
2021/05/27 03:52:23;;;;;;;8.48;6.70;;;;;;;16.43;100.00;101070.75;1774275;80;21074;-66
2021/05/27 03:54:51;;;;;;;12.78;7.58;;;;;;;16.52;100.00;101064.84;1774427;80;21563;-65
2021/05/27 03:57:17;;;;;;;15.20;7.72;;;;;;;16.65;100.00;101071.80;1791771;79;21130;-66
2021/05/27 04:02:33;;;;;;;12.03;7.67;;;;;;;16.97;100.00;101068.25;1801798;79;21043;-66
2021/05/27 04:07:51;;;;;;;14.28;7.95;;;;;;;17.36;100.00;101064.23;1774208;80;21117;-67
2021/05/27 04:10:17;;;;;;;13.00;7.40;;;;;;;17.56;100.00;101066.22;1773759;80;21078;-63
2021/05/27 04:12:46;;;;;;;14.70;7.75;;;;;;;17.71;100.00;101063.95;1774010;80;21606;-66
2021/05/27 04:15:25;;;;;;;14.73;7.50;;;;;;;17.88;100.00;101068.84;1774017;80;21129;-67
2021/05/27 04:18:02;;;;;;;14.30;6.58;;;;;;;18.09;100.00;101068.03;1775620;80;21541;-65
2021/05/27 04:20:39;;;;;;;23.40;7.58;;;;;;;18.34;100.00;101065.14;1773914;80;21082;-64
2021/05/27 04:23:09;;;;;;;21.40;8.75;;;;;;;18.63;100.00;101072.41;1774658;80;20962;-66
2021/05/27 04:25:36;;;;;;;35.65;10.05;;;;;;;18.88;100.00;101070.34;1790399;79;21567;-67
2021/05/27 04:28:04;;;;;;;29.57;10.38;;;;;;;19.07;100.00;101065.95;1800419;79;21102;-67
2021/05/27 04:30:30;;;;;;;37.65;11.18;;;;;;;19.16;97.21;101069.45;1802765;79;21725;-64
2021/05/27 04:33:02;;;;;;;33.28;11.22;;;;;;;19.17;95.80;101067.11;1802870;78;20876;-65
2021/05/27 04:35:40;;;;;;;35.88;11.70;;;;;;;19.20;95.35;101074.16;1800757;78;21404;-66
2021/05/27 04:38:13;;;;;;;44.65;14.03;;;;;;;19.27;94.50;101082.32;1802137;79;21622;-66
2021/05/27 04:40:47;;;;;;;56.33;13.45;;;;;;;19.25;93.68;101085.63;1800731;78;21587;-66
2021/05/27 04:43:16;;;;;;;59.48;13.72;;;;;;;19.20;92.67;101081.47;1801225;78;21102;-67
2021/05/27 04:45:43;;;;;;;53.65;13.25;;;;;;;19.06;92.21;101081.88;1769042;81;21575;-63
2021/05/27 04:48:10;;;;;;;32.67;11.40;;;;;;;18.94;92.85;101092.17;1769839;79;21090;-64
2021/05/27 04:50:38;;;;;;;28.52;10.30;;;;;;;18.90;92.94;101096.45;1773300;79;21094;-64
2021/05/27 04:53:06;;;;;;;18.73;8.10;;;;;;;18.94;92.81;101084.87;1775230;79;21110;-63
2021/05/27 04:55:33;;;;;;;12.47;8.20;;;;;;;19.00;91.86;101089.94;1782290;79;21114;-64
2021/05/27 04:58:00;;;;;;;12.03;9.03;;;;;;;19.11;91.46;101096.03;1782290;80;21066;-65
2021/05/27 05:00:27;;;;;;;13.62;7.97;;;;;;;19.17;90.28;101093.40;1782278;80;21141;-65
2021/05/27 05:02:56;;;;;;;14.63;8.98;;;;;;;19.14;89.89;101095.85;1782334;79;21121;-66
2021/05/27 05:05:23;;;;;;;14.43;8.80;;;;;;;19.16;89.70;101095.27;1771504;79;20901;-66
2021/05/27 05:07:51;;;;;;;17.92;9.20;;;;;;;19.28;89.32;101098.13;1750998;81;21087;-67
2021/05/27 05:10:20;;;;;;;20.05;8.98;;;;;;;19.38;88.72;101093.83;1752061;80;21035;-64
2021/05/27 05:12:49;;;;;;;25.15;10.30;;;;;;;19.38;88.11;101093.83;1751810;81;21039;-66
2021/05/27 05:15:21;;;;;;;22.77;9.95;;;;;;;19.41;88.42;101093.63;1750936;81;22196;-67
2021/05/27 05:17:56;;;;;;;21.97;10.48;;;;;;;19.51;88.10;101090.27;1751207;81;21737;-66
2021/05/27 05:20:25;;;;;;;19.10;11.55;;;;;;;19.63;87.88;101086.73;1753215;81;20975;-66
2021/05/27 05:22:54;;;;;;;17.80;10.68;;;;;;;19.80;86.83;101094.23;1751567;81;21031;-64
2021/05/27 05:25:21;;;;;;;19.27;11.15;;;;;;;19.96;86.35;101095.44;1781042;79;21069;-65
2021/05/27 05:27:48;;;;;;;20.12;10.82;;;;;;;20.10;85.49;101097.19;1783949;80;21006;-65
2021/05/27 05:30:15;;;;;;;17.82;9.80;;;;;;;20.24;84.74;101101.19;1782105;80;21066;-65
2021/05/27 05:32:42;;;;;;;18.62;10.70;;;;;;;20.40;84.04;101088.70;1781318;78;21727;-66
2021/05/27 05:35:11;;;;;;;17.80;10.78;;;;;;;20.59;82.77;101093.69;1802648;78;21089;-66
2021/05/27 05:37:39;;;;;;;16.20;11.38;;;;;;;20.76;81.44;101099.78;1794955;78;21355;-66
2021/05/27 05:40:10;;;;;;;17.20;11.20;;;;;;;20.89;80.44;101101.14;1772209;78;21053;-65
2021/05/27 05:42:41;;;;;;;15.78;10.95;;;;;;;21.04;79.47;101093.69;1801822;78;21021;-64
2021/05/27 05:45:10;;;;;;;21.35;10.90;;;;;;;21.20;78.32;101102.09;1803503;78;21096;-65
2021/05/27 05:47:40;;;;;;;15.18;9.38;;;;;;;21.28;77.21;101099.17;1766503;78;21093;-65
2021/05/27 05:50:08;;;;;;;13.88;9.53;;;;;;;21.34;76.64;101097.84;1706717;83;21078;-65
2021/05/27 05:52:35;;;;;;;13.72;9.15;;;;;;;21.41;76.13;101096.39;1757447;79;21128;-66
2021/05/27 05:55:05;;;;;;;12.82;9.45;;;;;;;21.47;75.57;101097.28;1749225;79;21106;-65
2021/05/27 05:57:31;;;;;;;13.85;9.03;;;;;;;21.55;75.35;101098.55;1750999;79;21548;-65
2021/05/27 05:59:58;;;;;;;15.10;10.20;;;;;;;21.62;74.91;101099.84;1747509;79;21067;-65
2021/05/27 06:02:25;;;;;;;16.45;10.28;;;;;;;21.72;73.90;101089.97;1760026;79;21078;-64
2021/05/27 06:04:53;;;;;;;16.73;10.98;;;;;;;21.82;73.49;101094.73;1754158;79;21117;-66
2021/05/27 06:07:38;;;;;;;14.33;10.13;;;;;;;21.88;73.17;101099.71;1746293;80;21847;-65
2021/05/27 06:10:06;;;;;;;14.23;10.05;;;;;;;21.93;72.13;101097.48;1753476;79;21185;-65
2021/05/27 06:12:33;;;;;;;15.13;10.60;;;;;;;22.01;71.73;101097.78;1755683;79;21131;-66
2021/05/27 06:14:59;;;;;;;14.45;11.30;;;;;;;22.09;71.51;101090.84;1758092;79;21066;-63
2021/05/27 06:17:26;;;;;;;14.93;11.45;;;;;;;22.12;71.49;101099.66;1770513;79;21121;-64
2021/05/27 06:19:54;;;;;;;15.03;11.12;;;;;;;22.14;71.62;101094.95;1756714;79;21375;-63
2021/05/27 06:22:22;;;;;;;13.50;11.38;;;;;;;22.17;71.26;101094.70;1751145;79;21582;-64
2021/05/27 06:24:55;;;;;;;14.70;11.12;;;;;;;22.18;70.82;101101.91;1757748;79;20991;-66
2021/05/27 06:27:22;;;;;;;17.75;10.90;;;;;;;22.22;70.46;101101.17;1754677;79;21103;-66
2021/05/27 06:29:48;;;;;;;14.40;10.93;;;;;;;22.26;69.85;101099.05;1758355;79;21168;-66
2021/05/27 06:32:16;;;;;;;13.60;10.53;;;;;;;22.32;69.05;101093.98;1759909;79;21077;-65
2021/05/27 06:34:44;;;;;;;16.65;10.38;;;;;;;22.40;69.44;101089.75;1760363;79;21160;-65
2021/05/27 06:37:10;;;;;;;12.20;7.65;;;;;;;22.44;69.23;101092.64;1768834;78;21068;-67
2021/05/27 06:39:38;;;;;;;10.80;7.22;;;;;;;22.51;67.37;101091.17;1763754;79;21665;-65
2021/05/27 06:42:05;;;;;;;8.78;5.60;;;;;;;22.64;65.12;101091.05;1764518;80;21610;-65
2021/05/27 06:44:32;;;;;;;8.98;7.28;;;;;;;22.77;61.05;101090.91;1756945;79;21583;-64
2021/05/27 06:46:59;;;;;;;11.57;7.80;;;;;;;22.86;61.96;101088.78;1759045;79;21826;-65
2021/05/27 06:49:25;;;;;;;7.03;5.78;;;;;;;22.91;63.04;101088.92;1759907;79;21074;-65
2021/05/27 06:51:56;;;;;;;10.85;6.08;;;;;;;22.94;60.16;101090.03;1761746;80;21092;-64
2021/05/27 06:54:20;;;;;;;6.53;5.50;;;;;;;22.97;58.88;101093.88;1761706;79;21631;-65
2021/05/27 06:56:50;;;;;;;9.45;5.72;;;;;;;23.01;57.65;101092.62;1757957;79;21094;-65
2021/05/27 06:59:17;;;;;;;6.42;5.67;;;;;;;23.09;58.48;101086.01;1761489;81;21523;-65
2021/05/27 07:01:44;;;;;;;11.45;6.10;;;;;;;23.12;59.70;101078.95;1765966;79;21197;-64
2021/05/27 07:04:11;;;;;;;6.92;5.20;;;;;;;23.21;59.01;101086.00;1762815;80;21038;-65
2021/05/27 07:06:38;;;;;;;9.38;5.50;;;;;;;23.28;58.07;101081.77;1767155;79;21031;-65
2021/05/27 07:09:05;;;;;;;5.67;4.17;;;;;;;23.34;56.52;101085.87;1770311;79;21062;-66
2021/05/27 07:11:32;;;;;;;7.85;5.42;;;;;;;23.38;54.02;101079.13;1761646;79;21943;-66
2021/05/27 07:14:00;;;;;;;7.33;5.05;;;;;;;23.41;53.97;101081.12;1758167;79;21430;-66
2021/05/27 07:16:27;;;;;;;8.53;5.12;;;;;;;23.49;54.24;101083.21;1760220;79;21108;-66
2021/05/27 07:18:55;;;;;;;7.62;5.30;;;;;;;23.58;54.61;101087.03;1771904;79;21125;-66
2021/05/27 07:21:22;;;;;;;5.92;4.75;;;;;;;23.57;54.58;101080.68;1746916;79;21086;-66
2021/05/27 07:23:48;;;;;;;7.90;4.60;;;;;;;23.63;54.65;101078.41;1760939;79;22523;-65
2021/05/27 07:26:15;;;;;;;8.03;5.08;;;;;;;23.71;53.78;101076.75;1762918;79;21789;-65
2021/05/27 07:28:42;;;;;;;8.35;5.70;;;;;;;23.82;52.44;101081.82;1757626;79;22673;-66
2021/05/27 07:31:08;;;;;;;5.95;5.28;;;;;;;23.84;52.42;101082.55;1754162;80;21113;-66
2021/05/27 07:33:35;;;;;;;7.22;4.97;;;;;;;23.78;52.37;101081.20;1768366;79;21090;-66
2021/05/27 07:36:04;;;;;;;7.80;5.10;;;;;;;23.78;52.92;101082.58;1766005;79;21170;-65
2021/05/27 07:38:31;;;;;;;6.42;5.08;;;;;;;23.86;53.24;101079.18;1765091;79;21264;-66
2021/05/27 07:40:59;;;;;;;8.05;5.08;;;;;;;23.99;53.31;101082.59;1760652;79;21034;-66
2021/05/27 07:43:25;;;;;;;6.00;4.60;;;;;;;24.13;53.33;101081.42;1773135;79;21141;-66
2021/05/27 07:45:55;;;;;;;5.83;4.62;;;;;;;24.23;52.98;101085.59;1782829;79;21054;-65
2021/05/27 07:48:22;;;;;;;6.03;4.30;;;;;;;24.31;51.28;101080.78;1712918;81;21618;-66
2021/05/27 07:50:49;;;;;;;5.85;4.67;;;;;;;24.39;50.77;101080.09;1711728;82;21094;-66
2021/05/27 07:53:19;;;;;;;5.87;4.05;;;;;;;24.41;50.88;101085.82;1703480;81;21619;-66
2021/05/27 07:55:45;;;;;;;6.10;4.20;;;;;;;24.47;51.22;101085.78;1711368;81;21114;-65
2021/05/27 07:58:13;;;;;;;7.37;4.25;;;;;;;24.50;50.36;101074.55;1713775;82;21402;-66
2021/05/27 08:00:40;;;;;;;9.55;4.62;;;;;;;24.55;50.03;101079.62;1693995;83;21102;-65
2021/05/27 08:03:07;;;;;;;7.58;4.12;;;;;;;24.59;49.97;101087.41;1700065;82;20963;-65
2021/05/27 08:05:35;;;;;;;11.38;4.72;;;;;;;24.63;50.12;101081.16;1708988;82;21111;-65
2021/05/27 08:08:07;;;;;;;6.58;4.28;;;;;;;24.64;50.88;101086.12;1707293;81;21071;-65
2021/05/27 08:10:39;;;;;;;6.58;3.65;;;;;;;24.63;50.66;101092.13;1708660;81;21086;-63
2021/05/27 08:13:14;;;;;;;4.37;3.98;;;;;;;24.59;49.84;101097.52;1707735;81;20959;-66
2021/05/27 08:15:43;;;;;;;8.53;4.55;;;;;;;24.52;49.40;101091.72;1696163;82;21082;-64
2021/05/27 08:18:16;;;;;;;5.87;4.10;;;;;;;24.44;49.64;101093.77;1712332;81;21065;-67
2021/05/27 08:20:46;;;;;;;6.25;4.28;;;;;;;24.40;50.32;101094.16;1702014;82;21584;-67
2021/05/27 08:23:15;;;;;;;8.98;5.37;;;;;;;24.36;50.53;101100.44;1702485;82;21631;-66
2021/05/27 08:25:42;;;;;;;7.62;4.75;;;;;;;24.32;51.16;101092.98;1704549;82;21502;-65
2021/05/27 08:28:13;;;;;;;6.08;4.35;;;;;;;24.31;51.40;101100.84;1701530;82;21018;-66
2021/05/27 08:30:42;;;;;;;6.55;4.28;;;;;;;24.31;51.79;101082.14;1700975;82;21085;-67
2021/05/27 08:33:09;;;;;;;7.42;4.22;;;;;;;24.36;51.16;101085.86;1693788;83;20995;-67
2021/05/27 08:35:37;;;;;;;4.92;4.42;;;;;;;24.40;50.80;101080.46;1705033;81;35619;-66
2021/05/27 08:38:04;;;;;;;5.45;3.90;;;;;;;24.42;50.66;101083.45;1701675;82;21154;-64
2021/05/27 08:40:31;;;;;;;7.17;3.98;;;;;;;24.46;49.81;101078.57;1701174;81;21177;-63
2021/05/27 08:43:03;;;;;;;6.47;3.65;;;;;;;24.49;49.49;101081.03;1693886;83;21359;-65
2021/05/27 08:45:29;;;;;;;7.40;4.35;;;;;;;24.55;49.44;101077.73;1695911;81;21539;-63
2021/05/27 08:48:01;;;;;;;6.20;4.37;;;;;;;24.57;49.12;101082.57;1701267;82;21130;-64
2021/05/27 08:50:31;;;;;;;5.05;4.12;;;;;;;24.58;49.12;101082.08;1741505;80;21079;-64
2021/05/27 08:52:58;;;;;;;12.18;4.03;;;;;;;24.61;49.30;101082.66;1725418;81;21114;-66
2021/05/27 08:55:25;;;;;;;7.12;3.60;;;;;;;24.65;48.73;101085.11;1714660;81;21088;-65
2021/05/27 08:57:52;;;;;;;4.75;4.28;;;;;;;24.70;48.44;101082.85;1713479;81;21102;-68
2021/05/27 09:00:19;;;;;;;6.10;3.83;;;;;;;24.79;48.42;101082.04;1755015;79;21770;-67
2021/05/27 09:03:00;;;;;;;9.43;3.45;;;;;;;24.86;47.82;101079.61;1756296;80;21631;-66
2021/05/27 09:05:34;;;;;;;4.72;3.20;;;;;;;24.90;47.79;101086.55;1756788;79;21122;-67
2021/05/27 09:08:00;;;;;;;4.12;3.70;;;;;;;24.97;47.86;101080.86;1753951;79;21129;-66
2021/05/27 09:10:48;;;;;;;7.60;3.70;;;;;;;25.06;47.17;101079.15;1751994;79;21121;-66
2021/05/27 09:13:19;;;;;;;5.00;3.30;;;;;;;25.12;46.85;101087.33;1762032;79;21137;-65
2021/05/27 09:15:47;;;;;;;5.40;3.60;;;;;;;25.19;46.98;101078.88;1752198;80;21148;-64
2021/05/27 09:18:31;;;;;;;4.22;3.35;;;;;;;25.17;46.76;101074.92;1764073;79;21190;-66
2021/05/27 09:20:59;;;;;;;;;;;;;;;25.18;46.27;101071.17;1758982;79;21107;-63
2021/05/27 09:23:26;;;;;;;6.90;3.58;;;;;;;25.22;46.06;101077.25;1763277;79;20283;-63
2021/05/27 09:26:04;;;;;;;6.85;3.40;;;;;;;25.24;46.16;101067.48;1755851;79;21573;-63
2021/05/27 09:28:32;;;;;;;3.50;3.20;;;;;;;25.27;46.22;101064.45;1734160;80;21173;-67
2021/05/27 09:31:05;;;;;;;3.92;3.08;;;;;;;25.30;45.67;101066.91;1768934;79;21058;-68
2021/05/27 09:33:41;;;;;;;4.83;3.27;;;;;;;25.32;45.10;101066.30;1760293;79;21058;-67
2021/05/27 09:36:13;;;;;;;6.85;3.70;;;;;;;25.32;45.36;101064.92;1759127;80;21054;-64
2021/05/27 09:38:44;;;;;;;5.08;4.17;;;;;;;25.33;45.39;101065.28;1754061;80;21512;-64
2021/05/27 09:41:21;;;;;;;5.35;3.72;;;;;;;25.24;45.12;101058.77;1759266;80;21685;-65
2021/05/27 09:43:54;;;;;;;6.72;4.20;;;;;;;25.10;45.45;101062.80;1760751;79;21070;-66
2021/05/27 09:46:22;;;;;;;4.83;3.58;;;;;;;24.95;45.71;101062.83;1763406;80;21413;-64
2021/05/27 09:49:09;;;;;;;4.53;3.75;;;;;;;24.82;45.89;101051.59;1769940;79;21510;-64
2021/05/27 09:51:36;;;;;;;7.97;4.00;;;;;;;24.71;46.51;101055.28;1729373;81;21158;-64
2021/05/27 09:54:03;;;;;;;6.08;3.72;;;;;;;24.56;47.11;101057.54;1722062;81;21121;-64
2021/05/27 09:56:42;;;;;;;4.97;3.98;;;;;;;24.44;47.65;101049.92;1726002;81;21168;-66
2021/05/27 09:59:11;;;;;;;5.85;3.70;;;;;;;24.36;47.27;101042.02;1734938;80;20926;-64
2021/05/27 10:01:38;;;;;;;5.37;3.10;;;;;;;24.27;47.60;101037.73;1681415;83;21138;-64
2021/05/27 10:04:15;;;;;;;4.60;3.62;;;;;;;24.19;47.15;101038.91;1736864;81;20975;-67
2021/05/27 10:06:41;;;;;;;11.40;4.40;;;;;;;24.16;48.33;101040.55;1736888;81;21142;-67
2021/05/27 10:09:21;;;;;;;7.03;4.92;;;;;;;24.15;49.68;101029.23;1696080;81;21350;-67
2021/05/27 10:11:58;;;;;;;6.72;4.30;;;;;;;24.14;49.95;101031.60;1658117;83;20943;-67
2021/05/27 10:14:24;;;;;;;7.03;4.00;;;;;;;24.11;50.18;101033.25;1727250;81;20983;-64
2021/05/27 10:16:51;;;;;;;8.05;4.37;;;;;;;24.06;50.71;101030.05;1732045;81;21061;-64
2021/05/27 10:19:18;;;;;;;4.15;3.55;;;;;;;24.03;50.62;101026.59;1735365;80;21104;-65
2021/05/27 10:21:45;;;;;;;7.65;3.90;;;;;;;23.96;49.49;101018.49;1719943;81;21169;-66
2021/05/27 10:24:11;;;;;;;7.70;4.37;;;;;;;23.89;50.37;101028.26;1738149;81;21516;-67
2021/05/27 10:26:38;;;;;;;4.55;3.90;;;;;;;23.83;51.07;101030.17;1739585;81;21163;-66
2021/05/27 10:29:06;;;;;;;10.60;3.98;;;;;;;23.78;52.46;101025.61;1734273;81;21219;-70
2021/05/27 10:31:37;;;;;;;5.37;3.92;;;;;;;23.79;52.25;101021.34;1715184;81;21931;-63
2021/05/27 10:34:02;;;;;;;5.50;4.10;;;;;;;23.81;51.15;101022.08;1733865;81;21038;-64
2021/05/27 10:36:43;;;;;;;7.00;4.03;;;;;;;23.82;51.92;101028.44;1730508;81;21572;-64
2021/05/27 10:39:10;;;;;;;4.00;3.60;;;;;;;23.81;51.80;101023.45;1733646;81;21096;-67
2021/05/27 10:41:44;;;;;;;7.03;3.75;;;;;;;23.79;51.85;101018.61;1699499;81;21077;-64
2021/05/27 10:44:15;;;;;;;3.95;3.55;;;;;;;23.77;50.14;101014.29;1739676;80;21120;-64
2021/05/27 10:46:48;;;;;;;7.40;3.65;;;;;;;23.70;49.32;101006.59;1730513;81;21087;-63
2021/05/27 10:49:42;;;;;;;4.90;3.47;;;;;;;23.66;49.98;101007.86;1736270;81;21058;-63
2021/05/27 10:52:33;;;;;;;3.83;3.22;;;;;;;23.61;49.72;101006.04;1663711;84;21469;-64
2021/05/27 10:55:00;;;;;;;6.33;3.92;;;;;;;23.55;48.92;100994.27;1673810;83;21161;-65
2021/05/27 10:57:45;;;;;;;9.83;3.98;;;;;;;23.53;49.38;100997.61;1721125;79;21137;-70
2021/05/27 11:00:19;;;;;;;3.60;3.30;;;;;;;23.55;50.03;100997.00;1773822;79;21018;-69
2021/05/27 11:02:46;;;;;;;7.60;3.25;;;;;;;23.58;48.56;100993.99;1770758;79;21137;-64
2021/05/27 11:05:24;;;;;;;4.85;3.22;;;;;;;23.56;47.47;100996.84;1768229;79;21049;-68
2021/05/27 11:08:20;;;;;;;6.50;3.00;;;;;;;23.54;47.50;100989.76;1772807;80;20931;-66
2021/05/27 11:10:47;;;;;;;4.92;2.80;;;;;;;23.56;47.80;100990.52;1778744;78;21802;-66
2021/05/27 11:13:13;;;;;;;8.93;3.37;;;;;;;23.60;46.27;100986.52;1767769;79;20978;-67
2021/05/27 11:16:06;;;;;;;5.85;2.65;;;;;;;23.61;46.84;100990.47;1769773;79;21376;-67
2021/05/27 11:18:33;;;;;;;5.55;2.83;;;;;;;23.63;45.62;100990.83;1777097;79;21122;-66
2021/05/27 11:21:32;;;;;;;2.87;2.10;;;;;;;23.63;45.24;100988.98;1764871;79;21050;-66
2021/05/27 11:27:28;;;;;;;3.45;2.77;;;;;;;23.69;44.45;100984.33;1744862;81;21433;-64
2021/05/27 11:30:39;;;;;;;4.83;3.10;;;;;;;23.78;45.74;100981.81;1729710;81;21612;-63
2021/05/27 11:33:28;;;;;;;3.95;2.98;;;;;;;23.77;45.37;100976.81;1725338;81;21107;-63
2021/05/27 11:35:57;;;;;;;6.85;3.62;;;;;;;23.70;45.96;100968.27;1764026;79;21137;-66
2021/05/27 11:38:29;;;;;;;6.37;3.58;;;;;;;23.66;48.83;100965.45;1733807;81;21533;-66